Time;durP1;ratioP1;P1;durP2;ratioP2;P2;SDS_P1;SDS_P2;PMS_P1;PMS_P2;Temp;Humidity;BMP_temperature;BMP_pressure;BME280_temperature;BME280_humidity;BME280_pressure;Samples;Min_cycle;Max_cycle;Signal;HPM_P1;HPM_P2
2022/02/18 00:00:04;;;;;;;11.45;5.10;;;13.60;1.00;;;;;;5031159;28;20029;-86
2022/02/18 00:02:29;;;;;;;10.35;5.10;;;13.60;1.00;;;;;;5037720;28;20032;-86
2022/02/18 00:04:55;;;;;;;12.35;5.40;;;13.50;1.00;;;;;;5034787;28;20472;-86
2022/02/18 00:07:21;;;;;;;10.20;5.10;;;13.60;1.00;;;;;;5035243;28;20021;-86
2022/02/18 00:09:46;;;;;;;14.52;5.10;;;13.60;1.00;;;;;;5035796;28;20443;-86
2022/02/18 00:12:12;;;;;;;10.23;5.53;;;13.50;1.00;;;;;;5030081;28;20120;-86
2022/02/18 00:14:38;;;;;;;12.27;5.40;;;13.40;1.00;;;;;;5035801;28;20095;-86
2022/02/18 00:17:04;;;;;;;13.13;5.60;;;13.50;1.00;;;;;;5035846;28;20029;-86
2022/02/18 00:19:30;;;;;;;12.88;5.80;;;13.40;1.00;;;;;;5034570;28;20021;-86
2022/02/18 00:21:55;;;;;;;11.05;5.43;;;13.40;1.00;;;;;;5035205;28;20115;-86
2022/02/18 00:24:21;;;;;;;11.20;5.72;;;13.30;1.00;;;;;;5032691;28;20544;-86
2022/02/18 00:26:47;;;;;;;10.18;4.72;;;13.30;1.00;;;;;;5033443;28;20071;-87
2022/02/18 00:29:13;;;;;;;13.90;5.70;;;13.30;1.00;;;;;;5036262;28;20060;-86
2022/02/18 00:31:39;;;;;;;10.70;4.85;;;13.30;1.00;;;;;;5034678;28;20087;-86
2022/02/18 00:34:05;;;;;;;10.00;4.68;;;13.30;1.00;;;;;;5034646;28;20032;-86
2022/02/18 00:36:30;;;;;;;10.80;4.95;;;13.30;1.00;;;;;;5032079;28;20025;-86
2022/02/18 00:38:56;;;;;;;10.57;5.13;;;13.20;1.00;;;;;;5030670;28;20127;-87
2022/02/18 00:41:22;;;;;;;10.02;4.80;;;13.10;1.00;;;;;;5036610;28;20060;-86
2022/02/18 00:43:48;;;;;;;10.95;5.22;;;13.10;1.00;;;;;;5034811;28;20029;-86
2022/02/18 00:46:14;;;;;;;12.10;5.60;;;13.00;1.00;;;;;;5034350;28;20034;-86
2022/02/18 00:48:39;;;;;;;11.77;5.80;;;13.00;1.00;;;;;;5034534;28;20170;-86
2022/02/18 00:51:06;;;;;;;15.23;7.10;;;12.90;1.00;;;;;;5030133;28;20041;-86
2022/02/18 00:53:32;;;;;;;14.63;6.93;;;12.90;1.00;;;;;;5036427;28;20026;-86
2022/02/18 00:55:57;;;;;;;13.95;7.22;;;12.90;1.00;;;;;;5033747;28;20033;-86
2022/02/18 00:58:24;;;;;;;13.15;7.25;;;12.80;1.00;;;;;;5034067;28;20032;-87
2022/02/18 01:00:50;;;;;;;12.05;7.20;;;12.90;1.00;;;;;;5034012;28;20040;-86
2022/02/18 01:03:17;;;;;;;14.55;6.72;;;12.70;1.00;;;;;;5030794;28;20025;-86
2022/02/18 01:05:42;;;;;;;12.20;6.47;;;12.70;1.00;;;;;;5034393;28;20520;-86
2022/02/18 01:08:08;;;;;;;14.80;6.78;;;12.60;1.00;;;;;;5035074;28;20052;-86
2022/02/18 01:10:34;;;;;;;15.18;7.45;;;12.70;1.00;;;;;;5034240;28;20409;-86
2022/02/18 01:13:00;;;;;;;12.20;6.25;;;12.70;1.00;;;;;;5034046;28;20036;-86
2022/02/18 01:15:25;;;;;;;13.35;7.22;;;12.80;1.00;;;;;;5030712;28;20037;-86
2022/02/18 01:17:51;;;;;;;12.70;6.53;;;12.80;1.00;;;;;;5031422;28;20026;-86
2022/02/18 01:20:17;;;;;;;11.73;6.80;;;12.80;1.00;;;;;;5034023;28;20060;-86
2022/02/18 01:22:43;;;;;;;14.05;6.75;;;12.70;1.00;;;;;;5033942;28;20030;-86
2022/02/18 01:25:09;;;;;;;16.27;7.55;;;12.60;1.00;;;;;;5032590;28;20029;-86
2022/02/18 01:27:35;;;;;;;13.18;7.45;;;12.60;1.00;;;;;;5033528;28;20031;-87
2022/02/18 01:30:02;;;;;;;13.48;7.20;;;12.50;1.00;;;;;;5029921;28;20421;-86
2022/02/18 01:32:28;;;;;;;16.80;7.25;;;12.30;1.00;;;;;;5035313;28;20112;-86
2022/02/18 01:34:54;;;;;;;11.32;5.97;;;12.20;1.00;;;;;;5034182;28;20518;-86
2022/02/18 01:37:20;;;;;;;11.98;5.95;;;12.40;1.00;;;;;;5032507;28;20045;-86
2022/02/18 01:39:46;;;;;;;8.52;5.15;;;12.10;1.00;;;;;;5033886;28;20060;-87
2022/02/18 01:42:11;;;;;;;10.85;5.50;;;12.00;1.00;;;;;;5028857;28;20067;-86
2022/02/18 01:44:46;;;;;;;12.63;6.03;;;12.50;1.00;;;;;;5036262;28;20070;-86
2022/02/18 01:47:15;;;;;;;12.93;5.72;;;11.90;1.00;;;;;;5034474;28;20026;-86
2022/02/18 01:49:44;;;;;;;8.70;4.65;;;11.80;1.00;;;;;;5033724;28;20044;-86
2022/02/18 01:52:10;;;;;;;8.88;4.72;;;11.70;1.00;;;;;;5036732;28;20044;-86
2022/02/18 01:54:36;;;;;;;12.45;5.28;;;11.70;1.00;;;;;;5035745;28;20021;-86
2022/02/18 01:57:02;;;;;;;11.25;4.50;;;11.60;1.00;;;;;;5033987;28;20044;-86
2022/02/18 01:59:28;;;;;;;9.60;4.40;;;11.60;1.00;;;;;;5040149;28;20025;-86
2022/02/18 02:01:55;;;;;;;11.15;4.22;;;11.60;1.00;;;;;;5037135;28;20116;-86
2022/02/18 02:04:21;;;;;;;10.77;5.32;;;11.50;1.00;;;;;;5037975;28;20501;-86
2022/02/18 02:06:48;;;;;;;11.25;4.47;;;11.40;1.00;;;;;;5037488;28;20135;-86
2022/02/18 02:09:14;;;;;;;10.07;4.20;;;11.40;1.00;;;;;;5034201;28;20040;-86
2022/02/18 02:11:40;;;;;;;11.40;4.40;;;11.40;1.00;;;;;;5037824;28;20032;-86
2022/02/18 02:14:06;;;;;;;8.82;3.90;;;11.40;1.00;;;;;;5038122;28;20029;-86
2022/02/18 02:16:32;;;;;;;8.13;4.00;;;11.30;1.00;;;;;;5036866;28;20108;-86
2022/02/18 02:18:58;;;;;;;10.30;4.32;;;11.30;1.00;;;;;;5037242;28;20037;-86
2022/02/18 02:21:26;;;;;;;9.98;4.18;;;11.30;1.00;;;;;;5035942;28;20226;-86
2022/02/18 02:23:55;;;;;;;9.68;4.30;;;11.30;1.00;;;;;;5034467;28;20052;-87
2022/02/18 02:26:21;;;;;;;8.27;3.88;;;11.50;1.00;;;;;;5039220;28;20029;-86
2022/02/18 02:28:47;;;;;;;9.57;4.10;;;11.20;1.00;;;;;;5036801;28;20183;-86
2022/02/18 02:31:13;;;;;;;10.00;3.85;;;11.30;1.00;;;;;;5036982;28;20560;-86
2022/02/18 02:33:38;;;;;;;10.65;3.88;;;11.40;1.00;;;;;;5035917;28;20025;-86
2022/02/18 02:36:04;;;;;;;8.52;3.55;;;11.20;1.00;;;;;;5016730;28;20499;-86
2022/02/18 02:38:30;;;;;;;9.18;3.63;;;11.20;1.00;;;;;;5039258;28;20033;-86
2022/02/18 02:40:55;;;;;;;7.70;3.28;;;11.20;1.00;;;;;;5036711;28;20100;-86
2022/02/18 02:43:22;;;;;;;7.75;3.30;;;11.20;1.00;;;;;;5036792;28;20040;-86
2022/02/18 02:45:48;;;;;;;11.20;3.80;;;11.20;1.00;;;;;;5036911;28;20025;-86
2022/02/18 02:48:14;;;;;;;8.52;3.40;;;11.10;1.00;;;;;;5033656;28;20026;-86
2022/02/18 02:50:40;;;;;;;9.15;3.47;;;11.20;1.00;;;;;;5037293;28;20038;-86
2022/02/18 02:53:05;;;;;;;8.80;3.45;;;11.10;1.00;;;;;;5037398;28;20101;-86
2022/02/18 02:55:31;;;;;;;11.80;3.78;;;11.10;1.00;;;;;;5036784;28;20394;-86
2022/02/18 02:57:57;;;;;;;8.90;3.20;;;11.10;1.00;;;;;;5036484;28;20036;-86
2022/02/18 03:00:22;;;;;;;7.60;3.35;;;10.90;1.00;;;;;;5034075;28;20087;-86
2022/02/18 03:02:48;;;;;;;9.15;3.20;;;10.90;1.00;;;;;;5034096;28;20064;-86
2022/02/18 03:05:14;;;;;;;8.60;3.47;;;10.80;1.00;;;;;;5038431;28;20494;-86
2022/02/18 03:07:40;;;;;;;8.68;3.08;;;10.70;1.00;;;;;;5036291;28;20029;-86
2022/02/18 03:10:08;;;;;;;7.13;3.00;;;10.80;1.00;;;;;;5036036;28;20056;-86
2022/02/18 03:12:34;;;;;;;9.25;3.28;;;11.00;1.00;;;;;;5034918;28;20478;-86
2022/02/18 03:15:00;;;;;;;9.65;3.60;;;11.00;1.00;;;;;;5031540;28;20122;-86
2022/02/18 03:17:27;;;;;;;9.25;3.05;;;11.00;1.00;;;;;;5037726;28;20025;-87
2022/02/18 03:19:52;;;;;;;11.48;3.47;;;11.00;1.00;;;;;;5036834;28;20021;-86
2022/02/18 03:22:19;;;;;;;6.53;3.00;;;10.90;1.00;;;;;;5036345;28;20022;-86
2022/02/18 03:24:44;;;;;;;7.13;3.20;;;10.90;1.00;;;;;;5035864;28;20560;-86
2022/02/18 03:27:10;;;;;;;7.57;3.63;;;10.80;1.00;;;;;;5032104;28;20108;-86
2022/02/18 03:29:36;;;;;;;6.30;3.53;;;10.80;1.00;;;;;;5037510;28;20050;-85
2022/02/18 03:32:03;;;;;;;7.18;3.75;;;10.70;1.00;;;;;;5036125;28;20067;-86
2022/02/18 03:34:28;;;;;;;8.60;3.45;;;10.70;1.00;;;;;;5035867;28;20070;-86
2022/02/18 03:36:54;;;;;;;8.63;3.40;;;10.50;1.00;;;;;;5035546;28;20115;-86
2022/02/18 03:39:19;;;;;;;7.40;3.35;;;10.40;1.00;;;;;;5033417;28;20026;-86
2022/02/18 03:41:45;;;;;;;6.65;2.97;;;10.40;1.00;;;;;;5034892;28;20041;-85
2022/02/18 03:44:11;;;;;;;7.80;3.30;;;10.50;1.00;;;;;;5037117;28;20040;-86
2022/02/18 03:46:36;;;;;;;8.68;3.47;;;10.60;1.00;;;;;;5035990;28;20071;-86
2022/02/18 03:49:02;;;;;;;10.40;3.35;;;10.50;1.00;;;;;;5035555;28;20033;-86
2022/02/18 03:51:28;;;;;;;7.70;3.25;;;10.50;1.00;;;;;;5032679;28;20071;-86
2022/02/18 03:53:53;;;;;;;8.00;3.05;;;10.50;1.00;;;;;;5033271;28;20429;-86
2022/02/18 03:56:19;;;;;;;10.70;3.63;;;10.50;1.00;;;;;;5037358;28;20037;-86
2022/02/18 03:58:45;;;;;;;8.23;3.40;;;10.80;1.00;;;;;;5035191;28;20045;-86
2022/02/18 04:01:11;;;;;;;8.55;3.60;;;10.60;1.00;;;;;;5035683;28;20048;-86
2022/02/18 04:03:37;;;;;;;8.80;3.60;;;10.50;1.00;;;;;;5035593;28;20507;-85
2022/02/18 04:06:03;;;;;;;7.47;3.83;;;10.50;1.00;;;;;;5030941;28;20113;-86
2022/02/18 04:08:29;;;;;;;9.20;3.53;;;10.70;1.00;;;;;;5037468;28;20422;-86
2022/02/18 04:10:55;;;;;;;6.82;3.95;;;10.10;1.00;;;;;;5034668;28;20083;-85
2022/02/18 04:13:20;;;;;;;10.77;4.05;;;10.00;1.00;;;;;;5033346;28;20026;-85
2022/02/18 04:15:46;;;;;;;8.23;3.95;;;10.00;1.00;;;;;;5034932;28;20396;-85
2022/02/18 04:18:12;;;;;;;8.85;3.90;;;9.80;1.00;;;;;;5031736;28;20022;-86
2022/02/18 04:20:37;;;;;;;8.35;3.72;;;10.10;1.00;;;;;;5035889;28;20033;-85
2022/02/18 04:23:03;;;;;;;10.45;4.10;;;10.10;1.00;;;;;;5035659;28;20489;-86
2022/02/18 04:25:30;;;;;;;6.05;3.53;;;9.90;1.00;;;;;;5034509;28;20055;-85
2022/02/18 04:27:58;;;;;;;9.27;3.53;;;10.00;1.00;;;;;;5034786;28;20021;-86
2022/02/18 04:30:24;;;;;;;8.85;3.90;;;9.90;1.00;;;;;;5031571;28;20084;-85
2022/02/18 04:32:50;;;;;;;8.98;3.88;;;9.90;1.00;;;;;;5032710;28;20460;-86
2022/02/18 04:35:16;;;;;;;11.55;3.67;;;10.20;1.00;;;;;;5034672;28;20033;-85
2022/02/18 04:37:42;;;;;;;7.07;3.47;;;9.90;1.00;;;;;;5036026;28;20112;-86
2022/02/18 04:40:09;;;;;;;9.32;3.75;;;10.00;1.00;;;;;;5034710;28;20053;-86
2022/02/18 04:42:35;;;;;;;9.20;3.40;;;9.90;1.00;;;;;;5034226;28;20021;-86
2022/02/18 04:45:00;;;;;;;7.35;3.35;;;9.90;1.00;;;;;;5031271;28;20033;-86
2022/02/18 04:47:26;;;;;;;8.43;3.25;;;9.90;1.00;;;;;;5036212;28;20096;-86
2022/02/18 04:49:52;;;;;;;8.98;3.60;;;9.90;1.00;;;;;;5033364;28;20091;-86
2022/02/18 04:52:17;;;;;;;7.03;2.88;;;10.10;1.00;;;;;;5034567;28;20021;-86
2022/02/18 04:54:43;;;;;;;10.02;3.33;;;10.20;1.00;;;;;;5032884;28;20039;-86
2022/02/18 04:57:10;;;;;;;10.52;3.40;;;9.90;1.00;;;;;;5030354;28;20049;-86
2022/02/18 04:59:35;;;;;;;10.52;3.80;;;9.80;1.00;;;;;;5036470;28;20028;-85
2022/02/18 05:02:01;;;;;;;10.80;3.75;;;9.80;1.00;;;;;;5032957;28;20033;-86
2022/02/18 05:04:27;;;;;;;7.97;3.00;;;9.80;1.00;;;;;;5034449;28;20083;-85
2022/02/18 05:06:53;;;;;;;6.90;3.17;;;9.90;1.00;;;;;;5033060;28;20037;-86
2022/02/18 05:09:18;;;;;;;6.25;2.55;;;9.80;1.00;;;;;;5029822;28;20029;-86
2022/02/18 05:11:44;;;;;;;7.68;3.38;;;9.70;1.00;;;;;;5034091;28;20033;-85
2022/02/18 05:14:09;;;;;;;7.18;3.00;;;9.70;1.00;;;;;;5035006;28;20025;-85
2022/02/18 05:16:35;;;;;;;6.28;3.00;;;9.90;1.00;;;;;;5034492;28;20033;-86
2022/02/18 05:19:02;;;;;;;6.72;3.13;;;9.70;1.00;;;;;;5034063;28;20052;-86
2022/02/18 05:21:28;;;;;;;6.78;2.83;;;10.00;1.00;;;;;;5031352;28;20044;-86
2022/02/18 05:23:54;;;;;;;7.35;3.35;;;9.60;1.00;;;;;;5029895;28;20029;-86
2022/02/18 05:26:19;;;;;;;6.25;3.08;;;9.80;1.00;;;;;;5036104;28;20033;-85
2022/02/18 05:28:45;;;;;;;4.35;2.55;;;9.70;1.00;;;;;;5033853;28;20512;-85
2022/02/18 05:31:10;;;;;;;7.70;2.80;;;9.80;1.00;;;;;;5033751;28;20038;-85
2022/02/18 05:33:36;;;;;;;7.32;3.10;;;9.50;1.00;;;;;;5034079;28;20021;-86
2022/02/18 05:36:02;;;;;;;4.45;2.78;;;9.90;1.00;;;;;;5029972;28;20040;-86
2022/02/18 05:38:28;;;;;;;7.30;2.80;;;9.60;1.00;;;;;;5035573;28;20385;-86
2022/02/18 05:40:55;;;;;;;7.72;3.00;;;10.20;1.00;;;;;;5033855;28;20033;-86
2022/02/18 05:43:21;;;;;;;7.13;2.90;;;9.60;1.00;;;;;;5034206;28;20459;-86
2022/02/18 05:45:47;;;;;;;5.07;2.60;;;9.60;1.00;;;;;;5033631;28;20037;-85
2022/02/18 05:48:12;;;;;;;7.75;2.97;;;9.60;1.00;;;;;;5028734;28;20030;-86
2022/02/18 05:50:38;;;;;;;7.93;3.17;;;10.00;1.00;;;;;;5034592;28;20050;-85
2022/02/18 05:53:03;;;;;;;6.72;3.17;;;10.10;1.00;;;;;;5034014;28;20022;-86
2022/02/18 05:55:29;;;;;;;9.48;3.67;;;9.70;1.00;;;;;;5033943;28;20599;-86
2022/02/18 05:57:55;;;;;;;5.85;3.03;;;9.50;1.00;;;;;;5033853;28;20036;-86
2022/02/18 06:00:21;;;;;;;6.95;2.67;;;9.70;1.00;;;;;;5031462;28;20040;-85
2022/02/18 06:02:46;;;;;;;7.55;2.97;;;9.40;1.00;;;;;;5031463;28;20064;-86
2022/02/18 06:05:12;;;;;;;6.82;2.42;;;9.20;1.00;;;;;;5033684;28;20508;-85
2022/02/18 06:07:41;;;;;;;6.43;3.00;;;9.30;1.00;;;;;;5033247;28;20095;-86
2022/02/18 06:10:07;;;;;;;4.25;2.58;;;9.50;1.00;;;;;;5033642;28;20040;-85
2022/02/18 06:12:33;;;;;;;6.07;2.90;;;9.30;1.00;;;;;;5033154;28;20029;-85
2022/02/18 06:14:59;;;;;;;7.57;3.25;;;9.30;1.00;;;;;;5030068;28;20044;-86
2022/02/18 06:17:24;;;;;;;5.65;3.13;;;9.60;1.00;;;;;;5034496;28;20026;-86
2022/02/18 06:19:50;;;;;;;6.47;2.80;;;9.30;1.00;;;;;;5033349;28;20022;-86
2022/02/18 06:22:16;;;;;;;6.03;3.15;;;9.80;1.00;;;;;;5032554;28;20029;-87
2022/02/18 06:24:43;;;;;;;7.93;3.38;;;9.30;1.00;;;;;;5033383;28;20033;-86
2022/02/18 06:27:08;;;;;;;10.27;2.97;;;9.20;1.00;;;;;;5029489;28;20026;-84
2022/02/18 06:29:34;;;;;;;6.75;3.45;;;9.60;1.00;;;;;;5035144;28;20049;-83
2022/02/18 06:32:00;;;;;;;5.55;3.22;;;9.40;1.00;;;;;;5033244;28;20401;-84
2022/02/18 06:34:26;;;;;;;6.28;3.30;;;9.60;1.00;;;;;;5033691;28;20395;-84
2022/02/18 06:36:52;;;;;;;8.35;3.60;;;9.40;1.00;;;;;;5033911;28;20033;-83
2022/02/18 06:39:21;;;;;;;8.98;3.63;;;9.50;1.00;;;;;;5033985;28;20052;-83
2022/02/18 06:41:47;;;;;;;7.45;3.58;;;9.20;1.00;;;;;;5035963;28;20025;-84
2022/02/18 06:44:14;;;;;;;7.60;3.58;;;9.30;1.00;;;;;;5038339;28;20052;-83
2022/02/18 06:46:39;;;;;;;10.13;3.67;;;9.30;1.00;;;;;;5036869;28;20087;-84
2022/02/18 06:49:05;;;;;;;10.38;3.30;;;9.10;1.00;;;;;;5036605;28;20440;-84
2022/02/18 06:51:31;;;;;;;9.88;3.90;;;9.20;1.00;;;;;;5035585;28;20044;-85
2022/02/18 06:53:56;;;;;;;8.32;3.47;;;9.10;1.00;;;;;;5033305;28;20037;-84
2022/02/18 06:56:22;;;;;;;8.90;3.88;;;9.20;1.00;;;;;;5038453;28;20064;-84
2022/02/18 06:58:48;;;;;;;7.30;4.10;;;9.70;1.00;;;;;;5035001;28;20032;-84
2022/02/18 07:01:14;;;;;;;8.75;3.90;;;9.60;1.00;;;;;;5036568;28;20025;-84
2022/02/18 07:03:39;;;;;;;7.00;3.58;;;9.70;1.00;;;;;;5036554;28;20032;-85
2022/02/18 07:06:05;;;;;;;8.85;4.03;;;9.80;1.00;;;;;;5031089;28;20103;-85
2022/02/18 07:08:32;;;;;;;6.88;3.72;;;9.60;1.00;;;;;;5037899;28;20025;-85
2022/02/18 07:10:58;;;;;;;8.65;3.58;;;9.70;1.00;;;;;;5036468;28;20069;-84
2022/02/18 07:13:24;;;;;;;6.03;3.85;;;9.40;1.00;;;;;;5036055;28;20018;-85
2022/02/18 07:15:50;;;;;;;8.05;3.80;;;9.40;1.00;;;;;;5036564;28;20047;-84
2022/02/18 07:18:16;;;;;;;7.20;3.67;;;9.30;1.00;;;;;;5032931;28;20021;-84
2022/02/18 07:20:43;;;;;;;8.30;3.83;;;9.40;1.00;;;;;;5035776;28;20040;-84
2022/02/18 07:23:09;;;;;;;5.82;3.40;;;9.60;1.00;;;;;;5036850;28;20482;-85
2022/02/18 07:25:35;;;;;;;7.30;3.65;;;9.60;1.00;;;;;;5036172;28;20025;-84
2022/02/18 07:28:01;;;;;;;6.47;3.45;;;9.60;1.00;;;;;;5035778;28;20022;-85
2022/02/18 07:30:27;;;;;;;7.20;3.88;;;9.60;1.00;;;;;;5034312;28;20472;-85
2022/02/18 07:32:53;;;;;;;6.18;4.30;;;9.60;1.00;;;;;;5033323;28;20025;-84
2022/02/18 07:35:20;;;;;;;6.72;4.25;;;9.60;1.00;;;;;;5036045;28;20040;-84
2022/02/18 07:37:49;;;;;;;11.25;4.40;;;9.70;1.00;;;;;;5036168;28;20440;-85
2022/02/18 07:40:14;;;;;;;10.38;4.93;;;10.00;1.00;;;;;;5035619;28;20029;-84
2022/02/18 07:42:42;;;;;;;9.73;4.38;;;9.70;1.00;;;;;;5035604;28;20125;-85
2022/02/18 07:45:08;;;;;;;9.55;5.00;;;9.70;1.00;;;;;;5029878;28;20026;-84
2022/02/18 07:47:34;;;;;;;9.35;4.22;;;9.50;1.00;;;;;;5045209;28;20059;-84
2022/02/18 07:49:59;;;;;;;8.48;4.53;;;9.60;1.00;;;;;;5035808;28;20069;-85
2022/02/18 07:52:25;;;;;;;8.38;4.38;;;9.90;1.00;;;;;;5035686;28;20032;-90
2022/02/18 07:54:51;;;;;;;8.27;4.03;;;9.90;1.00;;;;;;5035389;28;20125;-92
2022/02/18 07:57:16;;;;;;;10.52;4.43;;;10.30;1.00;;;;;;5033120;28;20021;-91
2022/02/18 07:59:42;;;;;;;9.93;4.85;;;10.60;1.00;;;;;;5036394;28;20033;-92
2022/02/18 08:02:08;;;;;;;9.80;4.80;;;10.80;1.00;;;;;;5034660;28;20441;-92
2022/02/18 08:04:33;;;;;;;9.68;5.10;;;10.80;1.00;;;;;;5039424;28;20021;-91
2022/02/18 08:06:59;;;;;;;9.73;4.95;;;11.20;1.00;;;;;;5044891;28;20043;-91
2022/02/18 08:09:25;;;;;;;10.60;4.50;;;11.30;1.00;;;;;;5032218;28;20061;-90
2022/02/18 08:11:50;;;;;;;8.25;6.13;;;11.40;1.00;;;;;;5045005;28;20179;-91
2022/02/18 08:14:16;;;;;;;8.38;4.40;;;11.60;1.00;;;;;;5048165;28;20106;-92
2022/02/18 08:16:44;;;;;;;9.35;4.32;;;11.90;1.00;;;;;;5045166;28;20120;-90
2022/02/18 08:19:11;;;;;;;5.25;4.18;;;12.30;99.90;;;;;;5033681;28;20095;-92
2022/02/18 08:21:36;;;;;;;7.75;4.38;;;12.70;1.00;;;;;;5034473;28;20078;-92
2022/02/18 08:24:02;;;;;;;11.25;4.90;;;12.90;1.00;;;;;;5043062;28;20442;-92
2022/02/18 08:26:28;;;;;;;8.15;5.50;;;13.00;1.00;;;;;;5036718;28;20026;-91
2022/02/18 08:28:53;;;;;;;8.48;4.75;;;13.00;1.00;;;;;;5033843;28;20065;-91
2022/02/18 08:31:19;;;;;;;13.38;5.90;;;13.40;1.00;;;;;;5033727;28;20040;-92
2022/02/18 08:33:45;;;;;;;9.93;4.90;;;13.70;1.00;;;;;;5033785;28;20028;-93
2022/02/18 08:36:11;;;;;;;9.65;5.65;;;14.50;1.00;;;;;;5029968;28;20033;-92
2022/02/18 08:38:37;;;;;;;6.30;5.30;;;15.50;1.00;;;;;;5037380;28;20045;-92
2022/02/18 08:41:04;;;;;;;7.78;5.47;;;15.70;1.00;;;;;;5046557;28;20052;-90
2022/02/18 08:43:29;;;;;;;8.57;5.47;;;16.40;1.00;;;;;;5037907;28;20120;-95
2022/02/18 08:45:55;;;;;;;8.93;5.25;;;17.20;99.90;;;;;;5029264;28;20124;-91
2022/02/18 08:48:21;;;;;;;7.65;5.07;;;18.10;99.90;;;;;;5045105;28;20051;-90
2022/02/18 08:50:46;;;;;;;6.55;4.40;;;18.90;99.90;;;;;;5034640;28;20507;-90
2022/02/18 08:53:12;;;;;;;5.55;4.20;;;19.60;99.90;;;;;;5036404;28;20041;-93
2022/02/18 08:55:38;;;;;;;5.72;4.20;;;19.90;99.90;;;;;;5033546;28;20044;-94
2022/02/18 08:58:05;;;;;;;6.95;5.22;;;20.50;99.90;;;;;;5032646;28;20382;-90
2022/02/18 09:00:31;;;;;;;10.50;5.80;;;20.10;99.90;;;;;;5031962;28;20063;-90
2022/02/18 09:02:57;;;;;;;16.05;7.15;;;20.50;99.90;;;;;;5046284;28;20124;-91
2022/02/18 09:05:24;;;;;;;13.70;6.22;;;20.40;99.90;;;;;;5036915;28;20382;-90
2022/02/18 09:07:50;;;;;;;9.75;5.40;;;20.20;99.90;;;;;;5034540;28;20030;-90
2022/02/18 09:10:16;;;;;;;8.15;5.70;;;20.30;1.00;;;;;;5034316;28;20049;-91
2022/02/18 09:12:42;;;;;;;8.98;5.40;;;20.80;99.90;;;;;;5034704;28;20025;-91
2022/02/18 09:15:11;;;;;;;8.23;5.55;;;21.00;99.90;;;;;;5030339;28;20025;-90
2022/02/18 09:17:37;;;;;;;9.05;4.97;;;21.30;99.90;;;;;;5035492;28;20021;-90
2022/02/18 09:20:05;;;;;;;6.88;5.05;;;21.70;99.90;;;;;;5031909;28;20030;-90
2022/02/18 09:22:31;;;;;;;7.05;4.65;;;22.40;99.90;;;;;;5034984;28;20033;-90
2022/02/18 09:24:57;;;;;;;9.35;4.88;;;22.30;99.90;;;;;;5034062;28;20511;-92
2022/02/18 09:27:22;;;;;;;6.50;4.60;;;22.70;99.90;;;;;;5032616;28;20017;-93
2022/02/18 09:29:48;;;;;;;6.72;4.60;;;23.20;99.90;;;;;;5032953;28;20103;-89
2022/02/18 09:32:15;;;;;;;6.78;3.95;;;23.40;99.90;;;;;;5027765;28;20039;-92
2022/02/18 09:34:41;;;;;;;5.85;4.20;;;24.00;99.90;;;;;;5025971;28;20029;-92
2022/02/18 09:37:07;;;;;;;8.95;4.38;;;24.30;99.90;;;;;;5027047;28;20029;-95
2022/02/18 09:39:34;;;;;;;8.32;4.10;;;24.70;99.90;;;;;;5019276;28;20022;-96
2022/02/18 09:41:59;;;;;;;6.45;3.92;;;25.70;99.90;;;;;;5012753;28;20025;-93
2022/02/18 09:44:28;;;;;;;6.55;3.58;;;26.20;99.90;;;;;;5019591;28;20026;-93
2022/02/18 09:46:55;;;;;;;6.10;3.90;;;26.30;99.90;;;;;;5025439;28;20044;-94
2022/02/18 09:49:21;;;;;;;7.47;3.47;;;26.00;99.90;;;;;;5027033;28;20032;-91
2022/02/18 09:51:46;;;;;;;7.03;4.45;;;25.50;99.90;;;;;;5025380;28;20494;-89
2022/02/18 09:54:12;;;;;;;9.82;4.70;;;25.50;99.90;;;;;;5029130;28;20481;-91
2022/02/18 09:56:42;;;;;;;6.45;4.40;;;25.70;99.90;;;;;;5026970;28;20029;-94
2022/02/18 09:59:10;;;;;;;7.82;4.13;;;26.30;99.90;;;;;;5016913;28;20034;-93
2022/02/18 10:01:36;;;;;;;16.02;8.32;;;26.70;99.90;;;;;;5016994;28;20026;-91
2022/02/18 10:04:03;;;;;;;5.53;2.80;;;27.20;99.90;;;;;;5014638;28;20025;-92
2022/02/18 10:06:30;;;;;;;1.63;1.10;;;25.70;99.90;;;;;;5027408;28;20149;-92
2022/02/18 10:08:58;;;;;;;2.13;1.50;;;25.30;99.90;;;;;;5028111;28;20434;-90
2022/02/18 10:11:24;;;;;;;1.70;1.20;;;24.70;99.90;;;;;;5016556;28;20065;-90
2022/02/18 10:13:53;;;;;;;1.60;1.23;;;24.70;99.90;;;;;;5019951;28;20038;-90
2022/02/18 10:16:20;;;;;;;1.70;1.50;;;24.70;99.90;;;;;;5023038;28;20393;-89
2022/02/18 10:18:55;;;;;;;1.30;1.20;;;26.00;99.90;;;;;;5028233;28;20022;-89
2022/02/18 10:21:23;;;;;;;1.63;1.27;;;26.90;99.90;;;;;;5031471;28;20018;-90
2022/02/18 10:23:50;;;;;;;3.65;1.50;;;26.90;99.90;;;;;;5030218;28;20115;-92
2022/02/18 10:26:16;;;;;;;3.22;1.50;;;27.70;99.90;;;;;;5036702;28;20052;-93
2022/02/18 10:28:53;;;;;;;2.10;1.52;;;27.70;99.90;;;;;;5037586;28;20029;-91
2022/02/18 10:31:19;;;;;;;2.60;1.38;;;27.70;99.90;;;;;;5036595;28;20501;-91
2022/02/18 10:34:09;;;;;;;2.47;1.40;;;27.50;99.90;;;;;;5037731;28;20055;-89
2022/02/18 10:36:45;;;;;;;1.83;1.27;;;26.70;99.90;;;;;;5035736;28;20111;-91
2022/02/18 10:39:27;;;;;;;1.65;1.00;;;27.20;99.90;;;;;;5018300;28;20029;-90
2022/02/18 10:41:59;;;;;;;2.30;1.40;;;27.30;99.90;;;;;;5034568;28;20529;-90
2022/02/18 10:44:30;;;;;;;3.08;1.30;;;27.60;99.90;;;;;;5038312;28;20370;-91
2022/02/18 10:46:56;;;;;;;2.63;1.23;;;27.70;99.90;;;;;;5037374;28;20040;-92
2022/02/18 10:49:24;;;;;;;2.72;1.20;;;26.40;99.90;;;;;;5036049;28;20379;-92
2022/02/18 10:51:52;;;;;;;1.45;1.13;;;26.90;99.90;;;;;;5037584;28;20029;-92
2022/02/18 10:54:30;;;;;;;1.65;1.17;;;26.90;99.90;;;;;;5034243;28;20111;-94
2022/02/18 10:57:17;;;;;;;4.10;1.20;;;26.10;99.90;;;;;;5034556;28;20110;-94
2022/02/18 10:59:44;;;;;;;2.17;1.10;;;25.20;99.90;;;;;;5036628;28;20026;-94
2022/02/18 11:02:09;;;;;;;2.80;1.17;;;25.50;99.90;;;;;;5046495;28;20397;-96
2022/02/18 11:04:35;;;;;;;2.70;1.23;;;25.60;99.90;;;;;;5051322;28;20029;-95
2022/02/18 11:07:07;;;;;;;3.08;1.33;;;25.70;99.90;;;;;;5061569;28;20029;-95
2022/02/18 11:09:33;;;;;;;2.75;1.10;;;24.90;99.90;;;;;;5037982;28;20045;-91
2022/02/18 11:12:03;;;;;;;1.70;1.15;;;24.50;99.90;;;;;;5032399;28;20117;-92
2022/02/18 11:14:32;;;;;;;2.72;1.17;;;23.60;99.90;;;;;;5045040;28;20124;-95
2022/02/18 11:16:58;;;;;;;3.17;1.10;;;25.40;99.90;;;;;;5048705;28;20051;-96
2022/02/18 11:19:24;;;;;;;2.85;1.30;;;24.80;99.90;;;;;;5055468;28;20059;-96
2022/02/18 11:21:49;;;;;;;2.50;0.98;;;24.90;99.90;;;;;;5048727;28;20414;-91
2022/02/18 11:24:17;;;;;;;3.90;1.10;;;25.40;99.90;;;;;;5051392;28;20378;-96
2022/02/18 11:26:46;;;;;;;2.85;1.00;;;24.80;99.90;;;;;;5036172;28;20029;-91
2022/02/18 11:29:11;;;;;;;3.75;1.30;;;24.90;99.90;;;;;;5038406;28;20048;-91
2022/02/18 11:31:53;;;;;;;2.15;1.23;;;24.30;99.90;;;;;;5036599;28;20045;-92
2022/02/18 11:34:37;;;;;;;4.22;2.13;;;24.10;99.90;;;;;;5037215;28;20029;-91
2022/02/18 11:37:31;;;;;;;4.25;1.20;;;25.10;99.90;;;;;;5070551;23;20052;-96
2022/02/18 11:40:34;;;;;;;4.90;1.48;;;25.20;99.90;;;;;;5036631;28;20152;-96
2022/02/18 11:43:32;;;;;;;3.83;1.08;;;26.40;99.90;;;;;;5039187;28;20079;-96
2022/02/18 11:46:04;;;;;;;2.63;1.13;;;26.60;99.90;;;;;;5010102;28;20506;-91
2022/02/18 11:48:49;;;;;;;2.85;1.40;;;26.00;99.90;;;;;;5033803;28;20108;-91
2022/02/18 11:51:19;;;;;;;5.95;5.45;;;27.60;99.90;;;;;;5002185;28;20099;-93
2022/02/18 11:53:49;;;;;;;3.72;1.60;;;27.80;99.90;;;;;;5034169;28;20021;-92
2022/02/18 11:56:27;;;;;;;4.35;1.17;;;28.10;99.90;;;;;;5039896;28;20095;-93
2022/02/18 11:59:04;;;;;;;1.80;0.95;;;27.20;99.90;;;;;;5019458;28;20087;-94
2022/02/18 12:02:04;;;;;;;3.03;1.10;;;27.90;99.90;;;;;;5034570;28;20034;-96
2022/02/18 12:04:31;;;;;;;2.25;1.00;;;28.70;99.90;;;;;;5036241;28;20052;-93
2022/02/18 12:07:23;;;;;;;3.80;1.30;;;27.70;99.90;;;;;;5037251;28;20037;-96
2022/02/18 12:09:49;;;;;;;2.35;1.00;;;27.30;99.90;;;;;;5027558;28;20477;-96
2022/02/18 12:12:29;;;;;;;2.58;0.90;;;27.00;99.90;;;;;;5037389;28;20049;-94
2022/02/18 12:14:55;;;;;;;4.07;1.13;;;27.50;99.90;;;;;;5017500;28;20033;-96
2022/02/18 12:17:27;;;;;;;4.30;1.13;;;25.10;99.90;;;;;;5036154;28;20025;-94
2022/02/18 12:19:53;;;;;;;3.17;1.08;;;25.00;99.90;;;;;;5043426;28;20052;-96
2022/02/18 12:22:34;;;;;;;5.05;1.20;;;24.50;99.90;;;;;;5037066;28;20083;-96
2022/02/18 12:25:01;;;;;;;2.47;1.10;;;23.50;99.90;;;;;;5035515;28;20037;-93
2022/02/18 12:27:28;;;;;;;2.97;1.02;;;24.30;99.90;;;;;;5036652;28;20034;-92
2022/02/18 12:29:55;;;;;;;3.03;1.25;;;23.50;99.90;;;;;;5035025;28;20117;-93
2022/02/18 12:32:22;;;;;;;1.80;0.93;;;23.60;99.90;;;;;;5036456;28;20498;-89
2022/02/18 12:35:06;;;;;;;2.70;1.00;;;22.80;99.90;;;;;;5031123;28;20041;-89
2022/02/18 12:37:33;;;;;;;3.10;1.02;;;23.00;99.90;;;;;;5034064;28;20049;-94
2022/02/18 12:40:00;;;;;;;2.80;1.00;;;23.20;99.90;;;;;;5032614;28;20110;-92
2022/02/18 12:42:31;;;;;;;4.15;1.20;;;23.70;99.90;;;;;;5033387;28;20033;-94
2022/02/18 12:45:02;;;;;;;2.58;0.93;;;24.40;99.90;;;;;;5033297;28;20116;-94
2022/02/18 12:47:30;;;;;;;7.32;1.10;;;24.30;99.90;;;;;;5016317;28;20481;-93
2022/02/18 12:50:07;;;;;;;3.55;1.33;;;23.20;99.90;;;;;;5016989;28;20516;-94
2022/02/18 12:52:35;;;;;;;5.07;1.20;;;23.60;99.90;;;;;;5032947;28;20033;-91